createdAt,value
2017-12-03T00:01:05.956Z,11.30
2017-12-03T00:03:33.294Z,9.18
2017-12-03T00:06:00.903Z,8.90
2017-12-03T00:08:27.299Z,8.25
2017-12-03T00:10:54.182Z,8.93
2017-12-03T00:13:20.636Z,8.13
2017-12-03T00:15:47.944Z,9.13
2017-12-03T00:18:14.290Z,8.45
2017-12-03T00:20:40.764Z,8.02
2017-12-03T00:23:07.159Z,8.65
2017-12-03T00:25:33.527Z,9.75
2017-12-03T00:27:59.967Z,9.18
2017-12-03T00:30:26.336Z,8.98
2017-12-03T00:32:52.769Z,9.13
2017-12-03T00:35:19.930Z,7.93
2017-12-03T00:37:46.348Z,8.27
2017-12-03T00:40:12.750Z,8.23
2017-12-03T00:42:39.126Z,7.55
2017-12-03T00:45:05.499Z,7.22
2017-12-03T00:47:31.891Z,8.43
2017-12-03T00:49:58.304Z,8.65
2017-12-03T00:52:24.660Z,6.28
2017-12-03T00:54:51.066Z,5.80
2017-12-03T00:57:18.224Z,6.60
2017-12-03T00:59:45.643Z,7.30
2017-12-03T01:02:12.851Z,6.45
2017-12-03T01:04:39.280Z,6.18
2017-12-03T01:07:05.667Z,5.15
2017-12-03T01:09:32.076Z,6.90
2017-12-03T01:11:58.482Z,6.75
2017-12-03T01:14:25.608Z,6.25
2017-12-03T01:16:52.039Z,6.00
2017-12-03T01:19:18.452Z,6.40
2017-12-03T01:21:44.853Z,6.18
2017-12-03T01:24:11.225Z,5.30
2017-12-03T01:26:37.687Z,7.03
2017-12-03T01:29:04.086Z,6.75
2017-12-03T01:31:30.465Z,7.47
2017-12-03T01:33:56.872Z,5.00
2017-12-03T01:36:23.272Z,4.25
2017-12-03T01:38:49.665Z,3.83
2017-12-03T01:41:16.902Z,4.78
2017-12-03T01:43:43.452Z,4.12
2017-12-03T01:46:09.848Z,5.45
2017-12-03T01:48:36.255Z,4.60
2017-12-03T01:51:02.663Z,5.60
2017-12-03T01:53:29.049Z,5.60
2017-12-03T01:55:56.233Z,4.57
2017-12-03T01:58:23.472Z,5.65
2017-12-03T02:00:49.908Z,5.30
2017-12-03T02:03:17.092Z,6.28
2017-12-03T02:05:43.548Z,5.20
2017-12-03T02:08:10.744Z,6.20
2017-12-03T02:10:37.132Z,7.05
2017-12-03T02:13:03.594Z,5.68
2017-12-03T02:15:30.749Z,4.45
2017-12-03T02:17:57.184Z,5.85
2017-12-03T02:20:23.584Z,6.28
2017-12-03T02:22:50.000Z,6.62
2017-12-03T02:25:16.487Z,5.93
2017-12-03T02:27:42.924Z,7.00
2017-12-03T02:30:09.372Z,5.75
2017-12-03T02:32:35.792Z,6.97
2017-12-03T02:35:02.251Z,7.00
2017-12-03T02:37:28.720Z,6.68
2017-12-03T02:39:55.132Z,6.07
2017-12-03T02:42:21.544Z,6.50
2017-12-03T02:44:48.676Z,6.30
2017-12-03T02:47:15.096Z,6.95
2017-12-03T02:49:41.532Z,6.75
2017-12-03T02:52:07.919Z,6.78
2017-12-03T02:54:35.110Z,6.47
2017-12-03T02:57:02.334Z,6.78
2017-12-03T02:59:28.775Z,7.37
2017-12-03T03:01:55.204Z,8.20
2017-12-03T03:04:21.640Z,6.90
2017-12-03T03:06:48.023Z,8.32
2017-12-03T03:09:15.176Z,7.87
2017-12-03T03:11:41.623Z,8.63
2017-12-03T03:14:08.023Z,8.38
2017-12-03T03:16:34.463Z,7.68
2017-12-03T03:19:00.880Z,6.97
2017-12-03T03:21:28.016Z,9.18
2017-12-03T03:23:55.216Z,7.32
2017-12-03T03:26:22.392Z,7.55
2017-12-03T03:28:48.811Z,8.45
2017-12-03T03:31:16.026Z,8.57
2017-12-03T03:33:42.476Z,6.35
2017-12-03T03:36:08.908Z,7.85
2017-12-03T03:38:35.327Z,8.68
2017-12-03T03:41:02.898Z,11.63
2017-12-03T03:43:29.310Z,10.18
2017-12-03T03:45:56.524Z,9.30
2017-12-03T03:48:22.961Z,9.15
2017-12-03T03:50:49.345Z,9.95
2017-12-03T03:53:16.928Z,10.43
2017-12-03T03:55:43.388Z,11.02
2017-12-03T03:58:09.788Z,9.93
2017-12-03T04:00:36.248Z,10.00
2017-12-03T04:03:02.653Z,11.80
2017-12-03T04:05:29.115Z,11.52
2017-12-03T04:07:55.591Z,12.43
2017-12-03T04:10:21.995Z,11.77
2017-12-03T04:12:48.368Z,11.43
2017-12-03T04:15:14.823Z,10.82
2017-12-03T04:17:41.208Z,10.68
2017-12-03T04:20:08.363Z,10.32
2017-12-03T04:22:35.930Z,11.05
2017-12-03T04:25:03.097Z,9.63
2017-12-03T04:27:29.538Z,9.52
2017-12-03T04:29:57.150Z,9.15
2017-12-03T04:32:23.562Z,8.20
2017-12-03T04:34:50.728Z,10.50
2017-12-03T04:37:17.193Z,7.82
2017-12-03T04:39:43.752Z,7.47
2017-12-03T04:42:10.232Z,8.00
2017-12-03T04:44:37.443Z,8.32
2017-12-03T04:47:04.904Z,8.80
2017-12-03T04:49:31.399Z,7.80
2017-12-03T04:51:57.832Z,7.40
2017-12-03T04:54:24.295Z,8.18
2017-12-03T04:56:50.699Z,8.38
2017-12-03T04:59:17.124Z,8.65
2017-12-03T05:01:43.536Z,7.25
2017-12-03T05:04:09.975Z,7.57
2017-12-03T05:06:36.436Z,8.25
2017-12-03T05:09:02.872Z,7.80
2017-12-03T05:11:29.279Z,6.57
2017-12-03T05:13:55.757Z,6.40
2017-12-03T05:16:22.230Z,6.90
2017-12-03T05:18:49.437Z,7.45
2017-12-03T05:21:15.903Z,8.40
2017-12-03T05:23:42.300Z,6.50
2017-12-03T05:26:08.752Z,7.12
2017-12-03T05:28:35.224Z,6.62
2017-12-03T05:31:01.639Z,6.45
2017-12-03T05:33:28.088Z,8.48
2017-12-03T05:35:54.524Z,7.80
2017-12-03T05:38:20.928Z,8.88
2017-12-03T05:40:47.372Z,8.90
2017-12-03T05:43:14.560Z,9.88
2017-12-03T05:45:41.818Z,9.27
2017-12-03T05:48:08.425Z,9.35
2017-12-03T05:50:34.868Z,10.25
2017-12-03T05:53:01.288Z,7.43
2017-12-03T05:55:27.705Z,8.95
2017-12-03T05:57:54.120Z,8.43
2017-12-03T06:00:20.580Z,8.85
2017-12-03T06:02:47.807Z,9.75
2017-12-03T06:05:14.266Z,10.65
2017-12-03T06:07:40.662Z,9.05
2017-12-03T06:10:07.123Z,7.87
2017-12-03T06:12:33.563Z,8.15
2017-12-03T06:14:59.988Z,8.93
2017-12-03T06:17:27.188Z,8.55
2017-12-03T06:19:53.616Z,9.32
2017-12-03T06:22:20.052Z,9.15
2017-12-03T06:24:46.573Z,8.63
2017-12-03T06:27:13.044Z,7.57
2017-12-03T06:29:39.484Z,6.65
2017-12-03T06:32:06.694Z,6.60
2017-12-03T06:34:33.216Z,6.82
2017-12-03T06:36:59.736Z,6.12
2017-12-03T06:39:26.908Z,6.75
2017-12-03T06:41:53.362Z,7.03
2017-12-03T06:44:19.820Z,6.53
2017-12-03T06:46:46.244Z,6.72
2017-12-03T06:49:12.738Z,9.27
2017-12-03T06:51:39.192Z,8.38
2017-12-03T06:54:05.628Z,8.52
2017-12-03T06:56:32.064Z,8.77
2017-12-03T06:58:58.504Z,10.18
2017-12-03T07:01:26.130Z,7.47
2017-12-03T07:03:52.621Z,10.38
2017-12-03T07:06:19.788Z,9.90
2017-12-03T07:08:46.247Z,10.45
2017-12-03T07:11:13.444Z,10.65
2017-12-03T07:13:39.845Z,9.65
2017-12-03T07:16:06.318Z,8.18
2017-12-03T07:18:32.773Z,9.68
2017-12-03T07:20:59.977Z,8.13
2017-12-03T07:23:26.440Z,10.70
2017-12-03T07:25:52.852Z,9.75
2017-12-03T07:28:19.284Z,8.13
2017-12-03T07:30:45.733Z,8.93
2017-12-03T07:33:12.179Z,9.73
2017-12-03T07:35:38.616Z,10.30
2017-12-03T07:38:05.065Z,10.48
2017-12-03T07:40:31.585Z,9.55
2017-12-03T07:42:59.032Z,8.93
2017-12-03T07:45:25.456Z,9.40
2017-12-03T07:47:52.104Z,10.18
2017-12-03T07:50:19.292Z,9.90
2017-12-03T07:52:45.774Z,9.52
2017-12-03T07:55:12.232Z,11.20
2017-12-03T07:57:38.678Z,10.88
2017-12-03T08:00:05.087Z,10.45
2017-12-03T08:02:32.316Z,11.43
2017-12-03T08:04:58.859Z,12.65
2017-12-03T08:07:25.264Z,10.02
2017-12-03T08:09:52.492Z,11.43
2017-12-03T08:12:18.920Z,11.45
2017-12-03T08:14:46.393Z,12.90
2017-12-03T08:17:13.005Z,12.15
2017-12-03T08:19:39.474Z,12.80
2017-12-03T08:22:05.914Z,12.32
2017-12-03T08:24:32.385Z,13.05
2017-12-03T08:26:58.873Z,11.85
2017-12-03T08:29:26.052Z,12.07
2017-12-03T08:31:52.446Z,12.80
2017-12-03T08:34:18.964Z,13.55
2017-12-03T08:36:45.408Z,13.25
2017-12-03T08:39:11.840Z,14.48
2017-12-03T08:41:38.326Z,13.35
2017-12-03T08:44:05.740Z,14.32
2017-12-03T08:46:32.184Z,11.95
2017-12-03T08:48:58.648Z,13.35
2017-12-03T08:51:25.187Z,11.82
2017-12-03T08:53:51.656Z,14.63
2017-12-03T08:56:18.100Z,13.80
2017-12-03T08:58:44.515Z,14.73
2017-12-03T09:01:10.988Z,13.88
2017-12-03T09:03:37.593Z,13.27
2017-12-03T09:06:04.818Z,14.38
2017-12-03T09:08:31.256Z,13.52
2017-12-03T09:10:57.716Z,15.05
2017-12-03T09:13:24.116Z,14.40
2017-12-03T09:15:50.540Z,16.98
2017-12-03T09:18:16.937Z,15.60
2017-12-03T09:20:43.336Z,15.75
2017-12-03T09:23:09.804Z,14.85
2017-12-03T09:25:36.235Z,12.32
2017-12-03T09:28:02.696Z,15.88
2017-12-03T09:30:29.156Z,16.33
2017-12-03T09:32:55.592Z,13.80
2017-12-03T09:35:22.057Z,15.30
2017-12-03T09:37:48.568Z,15.38
2017-12-03T09:40:15.040Z,16.27
2017-12-03T09:42:41.444Z,14.77
2017-12-03T09:45:07.944Z,16.15
2017-12-03T09:47:34.396Z,14.13
2017-12-03T09:50:00.812Z,13.38
2017-12-03T09:52:27.270Z,13.75
2017-12-03T09:54:53.723Z,14.77
2017-12-03T09:57:20.159Z,12.95
2017-12-03T09:59:46.615Z,13.07
2017-12-03T10:02:13.177Z,12.20
2017-12-03T10:04:39.587Z,10.45
2017-12-03T10:07:06.167Z,9.45
2017-12-03T10:09:32.580Z,11.98
2017-12-03T10:11:59.024Z,11.23
2017-12-03T10:14:25.496Z,10.23
2017-12-03T10:16:51.964Z,12.95
2017-12-03T10:19:19.158Z,12.07
2017-12-03T10:21:45.604Z,12.40
2017-12-03T10:24:12.036Z,12.05
2017-12-03T10:26:38.476Z,10.85
2017-12-03T10:29:04.929Z,16.60
2017-12-03T10:31:31.328Z,14.70
2017-12-03T10:33:57.748Z,13.73
2017-12-03T10:36:24.224Z,12.60
2017-12-03T10:38:50.660Z,12.55
2017-12-03T10:41:17.111Z,12.30
2017-12-03T10:43:44.296Z,11.27
2017-12-03T10:46:11.464Z,12.65
2017-12-03T10:48:38.610Z,13.10
2017-12-03T10:51:05.758Z,12.40
2017-12-03T10:53:32.186Z,13.90
2017-12-03T10:55:58.637Z,11.75
2017-12-03T10:58:25.108Z,13.10
2017-12-03T11:00:51.528Z,12.98
2017-12-03T11:03:17.966Z,13.93
2017-12-03T11:05:44.407Z,11.93
2017-12-03T11:08:10.796Z,12.65
2017-12-03T11:10:38.000Z,12.10
2017-12-03T11:13:04.402Z,11.77
2017-12-03T11:15:31.548Z,13.18
2017-12-03T11:17:58.009Z,12.43
2017-12-03T11:20:24.424Z,12.20
2017-12-03T11:22:50.840Z,13.48
2017-12-03T11:25:18.471Z,13.23
2017-12-03T11:27:45.626Z,15.57
2017-12-03T11:30:12.824Z,12.65
2017-12-03T11:32:39.284Z,12.10
2017-12-03T11:35:05.704Z,12.98
2017-12-03T11:37:32.111Z,14.57
2017-12-03T11:39:59.235Z,13.98
2017-12-03T11:42:25.634Z,15.98
2017-12-03T11:44:52.812Z,15.13
2017-12-03T11:47:19.248Z,15.85
2017-12-03T11:49:45.640Z,15.93
2017-12-03T11:52:12.032Z,15.25
2017-12-03T11:54:38.432Z,15.43
2017-12-03T11:57:04.823Z,15.93
2017-12-03T11:59:31.977Z,15.73
2017-12-03T12:01:58.381Z,15.07
2017-12-03T12:04:24.804Z,14.93
2017-12-03T12:06:51.174Z,12.48
2017-12-03T12:09:18.313Z,14.73
2017-12-03T12:11:44.755Z,13.35
2017-12-03T12:14:11.212Z,12.65
2017-12-03T12:16:37.624Z,13.88
2017-12-03T12:19:04.032Z,16.20
2017-12-03T12:21:31.472Z,14.65
2017-12-03T12:23:57.884Z,15.18
2017-12-03T12:26:25.256Z,12.52
2017-12-03T12:28:51.652Z,13.02
2017-12-03T12:31:18.876Z,13.98
2017-12-03T12:33:45.300Z,13.00
2017-12-03T12:36:12.694Z,13.45
2017-12-03T12:38:39.180Z,15.15
2017-12-03T12:41:05.536Z,12.25
2017-12-03T12:43:32.711Z,14.35
2017-12-03T12:45:59.160Z,14.73
2017-12-03T12:48:25.649Z,14.48
2017-12-03T12:50:52.147Z,15.20
2017-12-03T12:53:18.620Z,14.43
2017-12-03T12:55:45.028Z,13.70
2017-12-03T12:58:12.188Z,11.98
2017-12-03T13:00:38.576Z,14.05
2017-12-03T13:03:05.004Z,18.00
2017-12-03T13:05:31.391Z,14.45
2017-12-03T13:07:58.540Z,14.27
2017-12-03T13:10:24.911Z,13.15
2017-12-03T13:12:51.322Z,13.13
2017-12-03T13:15:18.534Z,12.75
2017-12-03T13:17:45.680Z,11.43
2017-12-03T13:20:12.114Z,11.63
2017-12-03T13:22:39.279Z,13.75
2017-12-03T13:25:05.730Z,12.60
2017-12-03T13:27:32.147Z,13.70
2017-12-03T13:29:59.324Z,14.05
2017-12-03T13:32:26.572Z,11.93
2017-12-03T13:34:52.980Z,15.73
2017-12-03T13:37:19.392Z,13.35
2017-12-03T13:39:46.527Z,12.20
2017-12-03T13:42:12.928Z,17.90
2017-12-03T13:44:39.384Z,12.15
2017-12-03T13:47:05.767Z,13.35
2017-12-03T13:49:32.150Z,14.35
2017-12-03T13:51:58.564Z,13.50
2017-12-03T13:54:24.956Z,12.43
2017-12-03T13:56:51.380Z,13.62
2017-12-03T13:59:17.791Z,15.82
2017-12-03T14:01:44.188Z,13.07
2017-12-03T14:04:10.638Z,15.65
2017-12-03T14:06:37.082Z,14.35
2017-12-03T14:09:03.497Z,15.00
2017-12-03T14:11:30.604Z,15.13
2017-12-03T14:13:57.099Z,14.55
2017-12-03T14:16:24.200Z,13.00
2017-12-03T14:18:50.656Z,13.32
2017-12-03T14:21:17.076Z,15.40
2017-12-03T14:23:43.511Z,13.00
2017-12-03T14:26:09.912Z,14.95
2017-12-03T14:28:37.080Z,17.73
2017-12-03T14:31:03.477Z,17.25
2017-12-03T14:33:29.911Z,15.00
2017-12-03T14:35:56.344Z,16.02
2017-12-03T14:38:23.480Z,14.13
2017-12-03T14:40:49.864Z,15.38
2017-12-03T14:43:16.282Z,14.70
2017-12-03T14:45:43.420Z,15.40
2017-12-03T14:48:09.844Z,14.45
2017-12-03T14:50:36.291Z,16.35
2017-12-03T14:53:02.677Z,13.75
2017-12-03T14:55:29.061Z,17.37
2017-12-03T14:57:55.520Z,15.30
2017-12-03T15:00:21.892Z,14.63
2017-12-03T15:02:49.330Z,15.82
2017-12-03T15:05:15.786Z,15.45
2017-12-03T15:07:42.216Z,14.85
2017-12-03T15:10:08.624Z,15.27
2017-12-03T15:12:35.103Z,14.95
2017-12-03T15:15:01.496Z,16.27
2017-12-03T15:17:28.653Z,15.80
2017-12-03T15:19:55.856Z,14.07
2017-12-03T15:22:22.248Z,17.35
2017-12-03T15:24:48.664Z,15.60
2017-12-03T15:27:15.084Z,16.40
2017-12-03T15:29:41.484Z,15.93
2017-12-03T15:32:07.916Z,15.70
2017-12-03T15:34:35.114Z,14.35
2017-12-03T15:37:01.542Z,15.77
2017-12-03T15:39:28.796Z,14.15
2017-12-03T15:41:55.172Z,15.70
2017-12-03T15:44:22.348Z,16.60
2017-12-03T15:46:48.744Z,15.77
2017-12-03T15:49:15.958Z,14.38
2017-12-03T15:51:42.408Z,14.70
2017-12-03T15:54:08.825Z,15.30
2017-12-03T15:56:35.319Z,14.40
2017-12-03T15:59:01.798Z,16.83
2017-12-03T16:01:28.228Z,16.40
2017-12-03T16:03:55.394Z,15.38
2017-12-03T16:06:21.838Z,15.90
2017-12-03T16:08:48.271Z,17.52
2017-12-03T16:11:14.732Z,15.85
2017-12-03T16:13:41.168Z,15.05
2017-12-03T16:16:07.611Z,15.40
2017-12-03T16:18:34.032Z,16.27
2017-12-03T16:21:00.456Z,16.20
2017-12-03T16:23:26.854Z,17.42
2017-12-03T16:25:53.476Z,15.57
2017-12-03T16:28:19.940Z,15.80
2017-12-03T16:30:46.339Z,16.92
2017-12-03T16:33:12.768Z,14.55
2017-12-03T16:35:39.936Z,14.40
2017-12-03T16:38:06.377Z,15.60
2017-12-03T16:40:32.844Z,16.02
2017-12-03T16:42:59.280Z,14.45
2017-12-03T16:45:25.717Z,16.42
2017-12-03T16:47:52.164Z,15.43
2017-12-03T16:50:18.636Z,15.85
2017-12-03T16:52:45.068Z,16.65
2017-12-03T16:55:11.473Z,19.50
2017-12-03T16:57:37.888Z,16.70
2017-12-03T17:00:04.276Z,15.63
2017-12-03T17:02:30.753Z,16.62
2017-12-03T17:04:57.176Z,18.40
2017-12-03T17:07:23.636Z,15.85
2017-12-03T17:09:50.080Z,16.55
2017-12-03T17:12:16.497Z,16.65
2017-12-03T17:14:43.657Z,15.68
2017-12-03T17:17:10.103Z,13.60
2017-12-03T17:19:37.304Z,15.93
2017-12-03T17:22:03.691Z,15.10
2017-12-03T17:24:30.876Z,17.15
2017-12-03T17:26:58.064Z,16.37
2017-12-03T17:29:24.516Z,16.17
2017-12-03T17:31:51.000Z,14.63
2017-12-03T17:34:17.392Z,16.30
2017-12-03T17:36:43.867Z,17.15
2017-12-03T17:39:10.284Z,15.35
2017-12-03T17:41:36.684Z,16.05
2017-12-03T17:44:03.093Z,16.62
2017-12-03T17:46:29.516Z,14.13
2017-12-03T17:48:55.896Z,15.20
2017-12-03T17:51:22.283Z,16.10
2017-12-03T17:53:48.726Z,15.30
2017-12-03T17:56:15.930Z,13.68
2017-12-03T17:58:42.379Z,15.93
2017-12-03T18:01:08.805Z,15.57
2017-12-03T18:03:35.220Z,15.45
2017-12-03T18:06:02.356Z,14.30
2017-12-03T18:08:29.512Z,16.70
2017-12-03T18:10:55.911Z,16.50
2017-12-03T18:13:22.328Z,16.65
2017-12-03T18:15:48.712Z,14.75
2017-12-03T18:18:15.124Z,13.07
2017-12-03T18:20:42.325Z,14.73
2017-12-03T18:23:08.772Z,13.55
2017-12-03T18:25:35.203Z,13.82
2017-12-03T18:28:01.613Z,14.63
2017-12-03T18:30:28.124Z,13.07
2017-12-03T18:32:54.539Z,12.55
2017-12-03T18:35:20.923Z,13.60
2017-12-03T18:37:48.968Z,14.27
2017-12-03T18:40:15.436Z,12.63
2017-12-03T18:42:41.924Z,12.95
2017-12-03T18:45:08.404Z,13.30
2017-12-03T18:47:34.835Z,12.85
2017-12-03T18:50:01.300Z,14.02
2017-12-03T18:52:27.792Z,14.00
2017-12-03T18:54:54.242Z,12.70
2017-12-03T18:57:21.876Z,12.65
2017-12-03T18:59:48.367Z,14.40
2017-12-03T19:02:15.537Z,14.95
2017-12-03T19:04:42.715Z,14.75
2017-12-03T19:07:09.193Z,14.35
2017-12-03T19:09:35.688Z,15.73
2017-12-03T19:12:02.140Z,12.45
2017-12-03T19:14:28.556Z,14.20
2017-12-03T19:16:54.944Z,14.70
2017-12-03T19:19:21.377Z,14.85
2017-12-03T19:21:47.807Z,16.05
2017-12-03T19:24:14.992Z,14.50
2017-12-03T19:26:41.400Z,14.15
2017-12-03T19:29:08.616Z,13.75
2017-12-03T19:31:35.052Z,14.80
2017-12-03T19:34:01.472Z,15.07
2017-12-03T19:36:27.952Z,15.07
2017-12-03T19:38:54.374Z,16.52
2017-12-03T19:41:20.897Z,13.95
2017-12-03T19:43:47.292Z,14.18
2017-12-03T19:46:13.696Z,13.73
2017-12-03T19:48:40.868Z,13.50
2017-12-03T19:51:07.309Z,14.23
2017-12-03T19:53:34.466Z,13.38
2017-12-03T19:56:01.673Z,13.27
2017-12-03T19:58:28.156Z,14.93
2017-12-03T20:00:54.573Z,14.63
2017-12-03T20:03:20.965Z,13.62
2017-12-03T20:05:47.450Z,15.90
2017-12-03T20:08:14.020Z,15.13
2017-12-03T20:10:40.423Z,14.50
2017-12-03T20:13:06.913Z,14.80
2017-12-03T20:15:33.335Z,13.68
2017-12-03T20:18:00.566Z,11.73
2017-12-03T20:20:27.044Z,12.20
2017-12-03T20:22:53.449Z,12.55
2017-12-03T20:25:20.604Z,14.30
2017-12-03T20:27:47.076Z,12.32
2017-12-03T20:30:13.508Z,14.05
2017-12-03T20:32:39.965Z,13.57
2017-12-03T20:35:06.404Z,14.00
2017-12-03T20:37:32.869Z,12.85
2017-12-03T20:39:59.295Z,13.05
2017-12-03T20:42:25.748Z,11.95
2017-12-03T20:44:52.228Z,13.80
2017-12-03T20:47:20.184Z,12.57
2017-12-03T20:49:46.655Z,13.50
2017-12-03T20:52:13.116Z,13.88
2017-12-03T20:54:39.604Z,14.30
2017-12-03T20:57:06.039Z,13.80
2017-12-03T20:59:32.496Z,12.50
2017-12-03T21:01:58.916Z,14.50
2017-12-03T21:04:25.357Z,13.73
2017-12-03T21:06:51.864Z,12.55
2017-12-03T21:09:18.385Z,13.77
2017-12-03T21:11:44.805Z,12.20
2017-12-03T21:14:11.228Z,13.10
2017-12-03T21:16:38.380Z,12.82
2017-12-03T21:19:05.564Z,14.43
2017-12-03T21:21:32.000Z,14.85
2017-12-03T21:23:59.178Z,13.60
2017-12-03T21:26:25.832Z,13.40
2017-12-03T21:28:53.000Z,12.98
2017-12-03T21:31:19.444Z,11.32
2017-12-03T21:33:45.942Z,13.43
2017-12-03T21:36:12.403Z,11.60
2017-12-03T21:38:39.615Z,15.20
2017-12-03T21:41:06.052Z,11.27
2017-12-03T21:43:32.504Z,12.25
2017-12-03T21:45:58.998Z,12.57
2017-12-03T21:48:26.184Z,13.27
2017-12-03T21:50:53.372Z,12.15
2017-12-03T21:53:19.764Z,14.02
2017-12-03T21:55:46.928Z,12.23
2017-12-03T21:58:13.296Z,12.70
2017-12-03T22:00:40.451Z,13.45
2017-12-03T22:03:06.861Z,13.80
2017-12-03T22:05:33.267Z,11.45
2017-12-03T22:07:59.677Z,12.75
2017-12-03T22:10:26.148Z,14.65
2017-12-03T22:12:52.566Z,13.00
2017-12-03T22:15:19.716Z,14.55
2017-12-03T22:17:46.105Z,12.43
2017-12-03T22:20:12.548Z,12.63
2017-12-03T22:22:38.981Z,13.60
2017-12-03T22:25:05.372Z,11.88
2017-12-03T22:27:31.820Z,12.07
2017-12-03T22:29:58.218Z,12.45
2017-12-03T22:32:24.624Z,12.60
2017-12-03T22:34:51.036Z,12.65
2017-12-03T22:37:17.401Z,12.98
2017-12-03T22:39:43.800Z,14.05
2017-12-03T22:42:10.230Z,11.40
2017-12-03T22:44:36.659Z,12.70
2017-12-03T22:47:03.835Z,10.93
2017-12-03T22:49:30.228Z,14.30
2017-12-03T22:51:56.656Z,13.90
2017-12-03T22:54:23.084Z,11.38
2017-12-03T22:56:49.484Z,12.25
2017-12-03T22:59:15.942Z,12.80
2017-12-03T23:01:42.325Z,13.38
2017-12-03T23:04:08.676Z,13.00
2017-12-03T23:06:35.064Z,11.55
2017-12-03T23:09:02.224Z,13.02
2017-12-03T23:11:28.604Z,12.63
2017-12-03T23:13:55.044Z,14.73
2017-12-03T23:16:22.459Z,14.10
2017-12-03T23:18:48.856Z,13.50
2017-12-03T23:21:16.598Z,13.90
2017-12-03T23:23:43.742Z,13.93
2017-12-03T23:26:10.219Z,14.50
2017-12-03T23:28:37.423Z,14.80
2017-12-03T23:31:03.867Z,15.80
2017-12-03T23:33:30.344Z,13.32
2017-12-03T23:35:56.810Z,14.90
2017-12-03T23:38:24.028Z,14.77
2017-12-03T23:40:50.446Z,14.48
2017-12-03T23:43:16.915Z,13.62
2017-12-03T23:45:43.404Z,13.13
2017-12-03T23:48:09.808Z,13.30
2017-12-03T23:50:36.413Z,13.85
2017-12-03T23:53:03.628Z,11.93
2017-12-03T23:55:30.069Z,13.75
2017-12-03T23:57:56.681Z,13.13
